sensor_id;sensor_type;location;lat;lon;timestamp;P1;durP1;ratioP1;P2;durP2;ratioP2
38683;SDS011;24910;53.248;-6.134;2022-09-09T00:01:25;13.35;;;5.75;;
38683;SDS011;24910;53.248;-6.134;2022-09-09T00:04:00;14.20;;;5.95;;
38683;SDS011;24910;53.248;-6.134;2022-09-09T00:06:42;14.68;;;6.38;;
38683;SDS011;24910;53.248;-6.134;2022-09-09T00:09:15;13.68;;;6.78;;
38683;SDS011;24910;53.248;-6.134;2022-09-09T00:11:47;13.95;;;6.47;;
38683;SDS011;24910;53.248;-6.134;2022-09-09T00:14:21;17.30;;;7.47;;
38683;SDS011;24910;53.248;-6.134;2022-09-09T00:16:58;17.70;;;7.68;;
38683;SDS011;24910;53.248;-6.134;2022-09-09T00:19:33;19.42;;;6.70;;
38683;SDS011;24910;53.248;-6.134;2022-09-09T00:22:13;26.02;;;7.53;;
38683;SDS011;24910;53.248;-6.134;2022-09-09T00:24:46;14.23;;;6.72;;
38683;SDS011;24910;53.248;-6.134;2022-09-09T00:27:23;13.20;;;6.45;;
38683;SDS011;24910;53.248;-6.134;2022-09-09T00:29:57;11.77;;;6.30;;
38683;SDS011;24910;53.248;-6.134;2022-09-09T00:32:30;15.20;;;6.28;;
38683;SDS011;24910;53.248;-6.134;2022-09-09T00:35:03;12.68;;;6.53;;
38683;SDS011;24910;53.248;-6.134;2022-09-09T00:37:42;15.05;;;7.05;;
38683;SDS011;24910;53.248;-6.134;2022-09-09T00:40:19;17.50;;;7.15;;
38683;SDS011;24910;53.248;-6.134;2022-09-09T00:42:55;13.68;;;7.03;;
38683;SDS011;24910;53.248;-6.134;2022-09-09T00:45:45;10.85;;;6.53;;
38683;SDS011;24910;53.248;-6.134;2022-09-09T00:48:28;11.82;;;6.05;;
38683;SDS011;24910;53.248;-6.134;2022-09-09T00:51:10;13.82;;;6.50;;
38683;SDS011;24910;53.248;-6.134;2022-09-09T00:53:55;15.82;;;6.07;;
38683;SDS011;24910;53.248;-6.134;2022-09-09T00:56:36;16.17;;;7.07;;
38683;SDS011;24910;53.248;-6.134;2022-09-09T00:59:12;17.15;;;6.93;;
38683;SDS011;24910;53.248;-6.134;2022-09-09T01:01:55;14.70;;;6.55;;
38683;SDS011;24910;53.248;-6.134;2022-09-09T01:04:27;11.43;;;6.60;;
38683;SDS011;24910;53.248;-6.134;2022-09-09T01:07:04;15.20;;;6.30;;
38683;SDS011;24910;53.248;-6.134;2022-09-09T01:09:42;10.85;;;6.28;;
38683;SDS011;24910;53.248;-6.134;2022-09-09T01:12:25;12.45;;;5.93;;
38683;SDS011;24910;53.248;-6.134;2022-09-09T01:15:03;11.70;;;5.97;;
38683;SDS011;24910;53.248;-6.134;2022-09-09T01:17:52;10.90;;;5.38;;
38683;SDS011;24910;53.248;-6.134;2022-09-09T01:20:29;11.20;;;5.50;;
38683;SDS011;24910;53.248;-6.134;2022-09-09T01:23:08;9.30;;;5.10;;
38683;SDS011;24910;53.248;-6.134;2022-09-09T01:26:11;9.15;;;5.13;;
38683;SDS011;24910;53.248;-6.134;2022-09-09T01:28:46;10.32;;;5.95;;
38683;SDS011;24910;53.248;-6.134;2022-09-09T01:31:18;13.05;;;6.30;;
38683;SDS011;24910;53.248;-6.134;2022-09-09T01:33:50;9.85;;;6.07;;
38683;SDS011;24910;53.248;-6.134;2022-09-09T01:36:22;10.05;;;5.93;;
38683;SDS011;24910;53.248;-6.134;2022-09-09T01:38:56;9.70;;;5.25;;
38683;SDS011;24910;53.248;-6.134;2022-09-09T01:41:27;9.40;;;5.63;;
38683;SDS011;24910;53.248;-6.134;2022-09-09T01:44:06;8.98;;;5.40;;
38683;SDS011;24910;53.248;-6.134;2022-09-09T01:46:38;12.52;;;5.15;;
38683;SDS011;24910;53.248;-6.134;2022-09-09T01:49:13;9.68;;;5.82;;
38683;SDS011;24910;53.248;-6.134;2022-09-09T01:51:43;11.88;;;5.18;;
38683;SDS011;24910;53.248;-6.134;2022-09-09T01:54:14;10.93;;;5.70;;
38683;SDS011;24910;53.248;-6.134;2022-09-09T01:56:47;10.27;;;5.50;;
38683;SDS011;24910;53.248;-6.134;2022-09-09T01:59:30;8.70;;;5.20;;
38683;SDS011;24910;53.248;-6.134;2022-09-09T02:02:11;8.30;;;5.18;;
38683;SDS011;24910;53.248;-6.134;2022-09-09T02:04:53;9.95;;;4.88;;
38683;SDS011;24910;53.248;-6.134;2022-09-09T02:07:32;21.27;;;5.90;;
38683;SDS011;24910;53.248;-6.134;2022-09-09T02:10:19;9.13;;;4.80;;
38683;SDS011;24910;53.248;-6.134;2022-09-09T02:13:02;6.72;;;4.13;;
38683;SDS011;24910;53.248;-6.134;2022-09-09T02:15:39;8.20;;;4.43;;
38683;SDS011;24910;53.248;-6.134;2022-09-09T02:18:13;8.13;;;4.50;;
38683;SDS011;24910;53.248;-6.134;2022-09-09T02:20:48;7.47;;;4.05;;
38683;SDS011;24910;53.248;-6.134;2022-09-09T02:23:18;7.90;;;4.22;;
38683;SDS011;24910;53.248;-6.134;2022-09-09T02:25:52;10.98;;;4.28;;
38683;SDS011;24910;53.248;-6.134;2022-09-09T02:28:26;10.75;;;4.47;;
38683;SDS011;24910;53.248;-6.134;2022-09-09T02:30:58;8.40;;;4.50;;
38683;SDS011;24910;53.248;-6.134;2022-09-09T02:33:37;7.97;;;4.30;;
38683;SDS011;24910;53.248;-6.134;2022-09-09T02:36:10;8.32;;;4.75;;
38683;SDS011;24910;53.248;-6.134;2022-09-09T02:38:45;8.32;;;4.57;;
38683;SDS011;24910;53.248;-6.134;2022-09-09T02:41:20;10.70;;;4.88;;
38683;SDS011;24910;53.248;-6.134;2022-09-09T02:43:54;7.70;;;4.88;;
38683;SDS011;24910;53.248;-6.134;2022-09-09T02:46:27;9.13;;;5.03;;
38683;SDS011;24910;53.248;-6.134;2022-09-09T02:49:07;10.20;;;4.88;;
38683;SDS011;24910;53.248;-6.134;2022-09-09T02:51:42;8.75;;;4.95;;
38683;SDS011;24910;53.248;-6.134;2022-09-09T02:54:20;9.07;;;4.90;;
38683;SDS011;24910;53.248;-6.134;2022-09-09T02:56:54;9.35;;;5.45;;
38683;SDS011;24910;53.248;-6.134;2022-09-09T02:59:33;8.80;;;5.05;;
38683;SDS011;24910;53.248;-6.134;2022-09-09T03:02:03;9.80;;;5.50;;
38683;SDS011;24910;53.248;-6.134;2022-09-09T03:04:33;9.02;;;5.03;;
38683;SDS011;24910;53.248;-6.134;2022-09-09T03:07:02;6.43;;;5.43;;
38683;SDS011;24910;53.248;-6.134;2022-09-09T03:09:32;9.88;;;5.55;;
38683;SDS011;24910;53.248;-6.134;2022-09-09T03:12:01;10.40;;;6.15;;
38683;SDS011;24910;53.248;-6.134;2022-09-09T03:14:35;11.43;;;6.35;;
38683;SDS011;24910;53.248;-6.134;2022-09-09T03:17:05;14.13;;;5.80;;
38683;SDS011;24910;53.248;-6.134;2022-09-09T03:19:42;10.05;;;5.85;;
38683;SDS011;24910;53.248;-6.134;2022-09-09T03:22:13;10.32;;;5.90;;
38683;SDS011;24910;53.248;-6.134;2022-09-09T03:24:43;11.73;;;5.97;;
38683;SDS011;24910;53.248;-6.134;2022-09-09T03:27:14;15.60;;;5.57;;
38683;SDS011;24910;53.248;-6.134;2022-09-09T03:29:45;12.82;;;5.65;;
38683;SDS011;24910;53.248;-6.134;2022-09-09T03:32:19;8.55;;;5.35;;
38683;SDS011;24910;53.248;-6.134;2022-09-09T03:34:50;12.10;;;5.13;;
38683;SDS011;24910;53.248;-6.134;2022-09-09T03:37:19;10.32;;;5.25;;
38683;SDS011;24910;53.248;-6.134;2022-09-09T03:42:21;12.02;;;5.13;;
38683;SDS011;24910;53.248;-6.134;2022-09-09T03:44:54;8.65;;;5.07;;
38683;SDS011;24910;53.248;-6.134;2022-09-09T03:47:25;14.48;;;5.88;;
38683;SDS011;24910;53.248;-6.134;2022-09-09T03:50:01;10.43;;;4.80;;
38683;SDS011;24910;53.248;-6.134;2022-09-09T03:52:32;10.30;;;5.18;;
38683;SDS011;24910;53.248;-6.134;2022-09-09T03:55:04;10.50;;;5.85;;
38683;SDS011;24910;53.248;-6.134;2022-09-09T03:57:34;8.90;;;4.75;;
38683;SDS011;24910;53.248;-6.134;2022-09-09T04:00:09;10.93;;;4.72;;
38683;SDS011;24910;53.248;-6.134;2022-09-09T04:02:50;9.88;;;4.40;;
38683;SDS011;24910;53.248;-6.134;2022-09-09T04:05:21;15.13;;;4.75;;
38683;SDS011;24910;53.248;-6.134;2022-09-09T04:07:50;9.57;;;4.80;;
38683;SDS011;24910;53.248;-6.134;2022-09-09T04:10:20;8.37;;;4.10;;
38683;SDS011;24910;53.248;-6.134;2022-09-09T04:12:51;7.95;;;4.57;;
38683;SDS011;24910;53.248;-6.134;2022-09-09T04:17:52;7.38;;;4.18;;
38683;SDS011;24910;53.248;-6.134;2022-09-09T04:20:22;7.03;;;4.28;;
38683;SDS011;24910;53.248;-6.134;2022-09-09T04:22:51;7.32;;;4.25;;
38683;SDS011;24910;53.248;-6.134;2022-09-09T04:25:21;6.75;;;3.80;;
38683;SDS011;24910;53.248;-6.134;2022-09-09T04:27:53;9.45;;;4.13;;
38683;SDS011;24910;53.248;-6.134;2022-09-09T04:30:24;5.00;;;3.60;;
38683;SDS011;24910;53.248;-6.134;2022-09-09T04:32:54;8.73;;;4.10;;
38683;SDS011;24910;53.248;-6.134;2022-09-09T04:35:25;6.75;;;3.80;;
38683;SDS011;24910;53.248;-6.134;2022-09-09T04:37:55;6.10;;;3.60;;
38683;SDS011;24910;53.248;-6.134;2022-09-09T04:40:25;5.90;;;3.30;;
38683;SDS011;24910;53.248;-6.134;2022-09-09T04:42:54;7.20;;;3.60;;
38683;SDS011;24910;53.248;-6.134;2022-09-09T04:45:24;6.47;;;3.42;;
38683;SDS011;24910;53.248;-6.134;2022-09-09T04:47:54;6.07;;;3.50;;
38683;SDS011;24910;53.248;-6.134;2022-09-09T04:50:23;6.85;;;3.38;;
38683;SDS011;24910;53.248;-6.134;2022-09-09T04:52:59;6.70;;;3.83;;
38683;SDS011;24910;53.248;-6.134;2022-09-09T04:55:29;7.43;;;3.33;;
38683;SDS011;24910;53.248;-6.134;2022-09-09T04:58:02;5.15;;;3.42;;
38683;SDS011;24910;53.248;-6.134;2022-09-09T05:00:33;5.35;;;3.40;;
38683;SDS011;24910;53.248;-6.134;2022-09-09T05:03:06;5.03;;;3.58;;
38683;SDS011;24910;53.248;-6.134;2022-09-09T05:05:36;7.70;;;3.63;;
38683;SDS011;24910;53.248;-6.134;2022-09-09T05:08:06;7.93;;;3.95;;
38683;SDS011;24910;53.248;-6.134;2022-09-09T05:10:38;7.28;;;3.30;;
38683;SDS011;24910;53.248;-6.134;2022-09-09T05:13:10;6.65;;;3.53;;
38683;SDS011;24910;53.248;-6.134;2022-09-09T05:15:41;7.05;;;3.78;;
38683;SDS011;24910;53.248;-6.134;2022-09-09T05:18:11;5.18;;;3.30;;
38683;SDS011;24910;53.248;-6.134;2022-09-09T05:20:40;5.15;;;2.90;;
38683;SDS011;24910;53.248;-6.134;2022-09-09T05:23:10;8.15;;;3.00;;
38683;SDS011;24910;53.248;-6.134;2022-09-09T05:25:40;6.83;;;3.30;;
38683;SDS011;24910;53.248;-6.134;2022-09-09T05:28:09;4.78;;;3.38;;
38683;SDS011;24910;53.248;-6.134;2022-09-09T05:30:39;8.45;;;3.50;;
38683;SDS011;24910;53.248;-6.134;2022-09-09T05:33:10;5.10;;;3.08;;
38683;SDS011;24910;53.248;-6.134;2022-09-09T05:35:39;7.82;;;3.45;;
38683;SDS011;24910;53.248;-6.134;2022-09-09T05:38:08;4.97;;;3.20;;
38683;SDS011;24910;53.248;-6.134;2022-09-09T05:40:38;4.07;;;3.28;;
38683;SDS011;24910;53.248;-6.134;2022-09-09T05:43:09;7.38;;;3.13;;
38683;SDS011;24910;53.248;-6.134;2022-09-09T05:48:11;5.20;;;3.20;;
38683;SDS011;24910;53.248;-6.134;2022-09-09T05:50:40;7.07;;;3.60;;
38683;SDS011;24910;53.248;-6.134;2022-09-09T05:53:09;8.05;;;3.60;;
38683;SDS011;24910;53.248;-6.134;2022-09-09T05:55:38;6.97;;;3.65;;
38683;SDS011;24910;53.248;-6.134;2022-09-09T05:58:07;6.95;;;4.18;;
38683;SDS011;24910;53.248;-6.134;2022-09-09T06:00:37;5.45;;;3.92;;
38683;SDS011;24910;53.248;-6.134;2022-09-09T06:03:08;8.05;;;4.75;;
38683;SDS011;24910;53.248;-6.134;2022-09-09T06:05:39;8.85;;;4.47;;
38683;SDS011;24910;53.248;-6.134;2022-09-09T06:08:11;9.48;;;4.68;;
38683;SDS011;24910;53.248;-6.134;2022-09-09T06:10:40;12.77;;;4.80;;
38683;SDS011;24910;53.248;-6.134;2022-09-09T06:13:09;9.95;;;4.57;;
38683;SDS011;24910;53.248;-6.134;2022-09-09T06:15:38;9.23;;;5.10;;
38683;SDS011;24910;53.248;-6.134;2022-09-09T06:18:09;9.30;;;4.88;;
38683;SDS011;24910;53.248;-6.134;2022-09-09T06:20:38;13.30;;;4.87;;
38683;SDS011;24910;53.248;-6.134;2022-09-09T06:23:07;9.13;;;4.72;;
38683;SDS011;24910;53.248;-6.134;2022-09-09T06:25:36;9.98;;;5.00;;
38683;SDS011;24910;53.248;-6.134;2022-09-09T06:28:08;7.20;;;4.93;;
38683;SDS011;24910;53.248;-6.134;2022-09-09T06:30:37;11.30;;;4.95;;
38683;SDS011;24910;53.248;-6.134;2022-09-09T06:33:07;9.40;;;4.68;;
38683;SDS011;24910;53.248;-6.134;2022-09-09T06:35:38;11.05;;;4.53;;
38683;SDS011;24910;53.248;-6.134;2022-09-09T06:38:08;10.30;;;5.15;;
38683;SDS011;24910;53.248;-6.134;2022-09-09T06:40:37;9.50;;;5.10;;
38683;SDS011;24910;53.248;-6.134;2022-09-09T06:43:07;9.40;;;4.85;;
38683;SDS011;24910;53.248;-6.134;2022-09-09T06:45:41;7.63;;;4.85;;
38683;SDS011;24910;53.248;-6.134;2022-09-09T06:48:10;8.10;;;5.10;;
38683;SDS011;24910;53.248;-6.134;2022-09-09T06:50:40;7.65;;;4.60;;
38683;SDS011;24910;53.248;-6.134;2022-09-09T06:53:09;9.32;;;4.30;;
38683;SDS011;24910;53.248;-6.134;2022-09-09T06:55:38;5.72;;;4.72;;
38683;SDS011;24910;53.248;-6.134;2022-09-09T06:58:09;6.40;;;4.13;;
38683;SDS011;24910;53.248;-6.134;2022-09-09T07:00:39;7.30;;;3.92;;
38683;SDS011;24910;53.248;-6.134;2022-09-09T07:03:09;8.73;;;4.95;;
38683;SDS011;24910;53.248;-6.134;2022-09-09T07:05:40;9.05;;;4.90;;
38683;SDS011;24910;53.248;-6.134;2022-09-09T07:08:11;7.55;;;4.32;;
38683;SDS011;24910;53.248;-6.134;2022-09-09T07:10:40;8.82;;;4.80;;
38683;SDS011;24910;53.248;-6.134;2022-09-09T07:13:11;7.30;;;4.50;;
38683;SDS011;24910;53.248;-6.134;2022-09-09T07:15:42;6.80;;;4.70;;
38683;SDS011;24910;53.248;-6.134;2022-09-09T07:18:12;12.45;;;5.55;;
38683;SDS011;24910;53.248;-6.134;2022-09-09T07:20:43;7.40;;;5.50;;
38683;SDS011;24910;53.248;-6.134;2022-09-09T07:23:20;7.80;;;5.05;;
38683;SDS011;24910;53.248;-6.134;2022-09-09T07:25:49;13.73;;;5.20;;
38683;SDS011;24910;53.248;-6.134;2022-09-09T07:28:19;7.22;;;4.63;;
38683;SDS011;24910;53.248;-6.134;2022-09-09T07:30:55;9.48;;;4.75;;
38683;SDS011;24910;53.248;-6.134;2022-09-09T07:33:26;8.85;;;5.20;;
38683;SDS011;24910;53.248;-6.134;2022-09-09T07:36:03;9.33;;;4.90;;
38683;SDS011;24910;53.248;-6.134;2022-09-09T07:38:37;6.25;;;4.50;;
38683;SDS011;24910;53.248;-6.134;2022-09-09T07:41:08;8.45;;;4.63;;
38683;SDS011;24910;53.248;-6.134;2022-09-09T07:43:40;11.15;;;5.28;;
38683;SDS011;24910;53.248;-6.134;2022-09-09T07:46:11;9.55;;;5.38;;
38683;SDS011;24910;53.248;-6.134;2022-09-09T07:48:43;8.38;;;5.18;;
38683;SDS011;24910;53.248;-6.134;2022-09-09T07:51:15;6.47;;;5.07;;
38683;SDS011;24910;53.248;-6.134;2022-09-09T07:53:48;8.48;;;5.10;;
38683;SDS011;24910;53.248;-6.134;2022-09-09T07:56:20;8.10;;;4.57;;
38683;SDS011;24910;53.248;-6.134;2022-09-09T07:58:51;7.35;;;4.47;;
38683;SDS011;24910;53.248;-6.134;2022-09-09T08:01:22;5.28;;;4.10;;
38683;SDS011;24910;53.248;-6.134;2022-09-09T08:03:53;6.45;;;4.05;;
38683;SDS011;24910;53.248;-6.134;2022-09-09T08:06:27;6.88;;;4.38;;
38683;SDS011;24910;53.248;-6.134;2022-09-09T08:09:00;5.72;;;4.30;;
38683;SDS011;24910;53.248;-6.134;2022-09-09T08:11:31;6.85;;;4.47;;
38683;SDS011;24910;53.248;-6.134;2022-09-09T08:14:06;6.22;;;3.85;;
38683;SDS011;24910;53.248;-6.134;2022-09-09T08:16:36;6.32;;;3.70;;
38683;SDS011;24910;53.248;-6.134;2022-09-09T08:19:07;8.10;;;3.50;;
38683;SDS011;24910;53.248;-6.134;2022-09-09T08:21:39;5.22;;;3.25;;
38683;SDS011;24910;53.248;-6.134;2022-09-09T08:24:10;4.72;;;3.22;;
38683;SDS011;24910;53.248;-6.134;2022-09-09T08:26:43;7.00;;;3.78;;
38683;SDS011;24910;53.248;-6.134;2022-09-09T08:29:15;5.15;;;3.80;;
38683;SDS011;24910;53.248;-6.134;2022-09-09T08:31:47;7.75;;;3.63;;
38683;SDS011;24910;53.248;-6.134;2022-09-09T08:34:17;4.88;;;3.67;;
38683;SDS011;24910;53.248;-6.134;2022-09-09T08:39:24;4.20;;;2.80;;
38683;SDS011;24910;53.248;-6.134;2022-09-09T08:41:58;4.47;;;2.60;;
38683;SDS011;24910;53.248;-6.134;2022-09-09T08:44:42;8.23;;;2.83;;
38683;SDS011;24910;53.248;-6.134;2022-09-09T08:47:22;4.93;;;2.90;;
38683;SDS011;24910;53.248;-6.134;2022-09-09T08:50:11;4.28;;;2.80;;
38683;SDS011;24910;53.248;-6.134;2022-09-09T08:52:53;3.88;;;2.08;;
38683;SDS011;24910;53.248;-6.134;2022-09-09T08:55:31;3.28;;;1.85;;
38683;SDS011;24910;53.248;-6.134;2022-09-09T08:58:10;3.53;;;2.08;;
38683;SDS011;24910;53.248;-6.134;2022-09-09T09:00:51;4.80;;;1.88;;
38683;SDS011;24910;53.248;-6.134;2022-09-09T09:04:00;4.15;;;1.67;;
38683;SDS011;24910;53.248;-6.134;2022-09-09T09:06:43;4.25;;;1.65;;
38683;SDS011;24910;53.248;-6.134;2022-09-09T09:09:29;7.45;;;1.50;;
38683;SDS011;24910;53.248;-6.134;2022-09-09T09:12:10;4.05;;;1.65;;
38683;SDS011;24910;53.248;-6.134;2022-09-09T09:14:45;3.95;;;1.20;;
38683;SDS011;24910;53.248;-6.134;2022-09-09T09:17:17;3.63;;;1.48;;
38683;SDS011;24910;53.248;-6.134;2022-09-09T09:19:48;1.83;;;1.23;;
38683;SDS011;24910;53.248;-6.134;2022-09-09T09:22:19;2.15;;;1.40;;
38683;SDS011;24910;53.248;-6.134;2022-09-09T09:24:59;2.47;;;1.30;;
38683;SDS011;24910;53.248;-6.134;2022-09-09T09:27:34;1.98;;;1.30;;
38683;SDS011;24910;53.248;-6.134;2022-09-09T09:30:12;3.47;;;1.17;;
38683;SDS011;24910;53.248;-6.134;2022-09-09T09:32:58;3.15;;;1.50;;
38683;SDS011;24910;53.248;-6.134;2022-09-09T09:35:30;2.28;;;1.38;;
38683;SDS011;24910;53.248;-6.134;2022-09-09T09:38:10;3.42;;;1.60;;
38683;SDS011;24910;53.248;-6.134;2022-09-09T09:41:07;4.40;;;1.60;;
38683;SDS011;24910;53.248;-6.134;2022-09-09T09:43:37;2.97;;;1.60;;
38683;SDS011;24910;53.248;-6.134;2022-09-09T09:46:19;2.90;;;1.40;;
38683;SDS011;24910;53.248;-6.134;2022-09-09T09:48:58;3.58;;;1.40;;
38683;SDS011;24910;53.248;-6.134;2022-09-09T09:51:29;2.55;;;1.63;;
38683;SDS011;24910;53.248;-6.134;2022-09-09T09:56:36;3.60;;;1.70;;
38683;SDS011;24910;53.248;-6.134;2022-09-09T09:59:05;1.73;;;1.38;;
38683;SDS011;24910;53.248;-6.134;2022-09-09T10:02:05;3.03;;;1.70;;
38683;SDS011;24910;53.248;-6.134;2022-09-09T10:04:42;3.22;;;1.67;;
38683;SDS011;24910;53.248;-6.134;2022-09-09T10:07:12;4.18;;;1.40;;
38683;SDS011;24910;53.248;-6.134;2022-09-09T10:09:46;4.97;;;1.52;;
38683;SDS011;24910;53.248;-6.134;2022-09-09T10:12:25;3.03;;;1.67;;
38683;SDS011;24910;53.248;-6.134;2022-09-09T10:15:02;3.10;;;1.42;;
38683;SDS011;24910;53.248;-6.134;2022-09-09T10:17:53;2.72;;;1.40;;
38683;SDS011;24910;53.248;-6.134;2022-09-09T10:20:30;5.07;;;1.75;;
38683;SDS011;24910;53.248;-6.134;2022-09-09T10:23:09;2.50;;;1.60;;
38683;SDS011;24910;53.248;-6.134;2022-09-09T10:25:56;3.00;;;1.52;;
38683;SDS011;24910;53.248;-6.134;2022-09-09T10:28:40;3.80;;;1.67;;
38683;SDS011;24910;53.248;-6.134;2022-09-09T10:31:31;3.92;;;1.65;;
38683;SDS011;24910;53.248;-6.134;2022-09-09T10:34:11;2.55;;;1.45;;
38683;SDS011;24910;53.248;-6.134;2022-09-09T10:36:48;1.98;;;1.40;;
38683;SDS011;24910;53.248;-6.134;2022-09-09T10:39:23;5.50;;;1.77;;
38683;SDS011;24910;53.248;-6.134;2022-09-09T10:42:09;1.83;;;1.40;;
38683;SDS011;24910;53.248;-6.134;2022-09-09T10:44:49;2.47;;;1.40;;
38683;SDS011;24910;53.248;-6.134;2022-09-09T10:47:33;2.05;;;1.48;;
38683;SDS011;24910;53.248;-6.134;2022-09-09T10:50:37;3.60;;;1.60;;
38683;SDS011;24910;53.248;-6.134;2022-09-09T10:53:35;3.25;;;1.65;;
38683;SDS011;24910;53.248;-6.134;2022-09-09T10:56:06;5.40;;;1.67;;
38683;SDS011;24910;53.248;-6.134;2022-09-09T10:58:39;2.38;;;1.58;;
38683;SDS011;24910;53.248;-6.134;2022-09-09T11:01:15;3.13;;;1.77;;
38683;SDS011;24910;53.248;-6.134;2022-09-09T11:03:57;3.75;;;1.90;;
38683;SDS011;24910;53.248;-6.134;2022-09-09T11:06:31;4.60;;;2.05;;
38683;SDS011;24910;53.248;-6.134;2022-09-09T11:09:05;5.25;;;2.03;;
38683;SDS011;24910;53.248;-6.134;2022-09-09T11:11:43;3.85;;;1.92;;
38683;SDS011;24910;53.248;-6.134;2022-09-09T11:14:19;4.60;;;2.28;;
38683;SDS011;24910;53.248;-6.134;2022-09-09T11:16:56;2.95;;;2.10;;
38683;SDS011;24910;53.248;-6.134;2022-09-09T11:19:30;2.20;;;2.00;;
38683;SDS011;24910;53.248;-6.134;2022-09-09T11:22:03;2.40;;;1.90;;
38683;SDS011;24910;53.248;-6.134;2022-09-09T11:24:36;3.55;;;2.08;;
38683;SDS011;24910;53.248;-6.134;2022-09-09T11:27:09;4.78;;;2.15;;
38683;SDS011;24910;53.248;-6.134;2022-09-09T11:29:57;5.00;;;2.35;;
38683;SDS011;24910;53.248;-6.134;2022-09-09T11:32:43;4.22;;;1.98;;
38683;SDS011;24910;53.248;-6.134;2022-09-09T11:35:30;3.92;;;2.30;;
38683;SDS011;24910;53.248;-6.134;2022-09-09T11:38:11;3.80;;;2.00;;
38683;SDS011;24910;53.248;-6.134;2022-09-09T11:40:47;4.07;;;2.30;;
38683;SDS011;24910;53.248;-6.134;2022-09-09T11:43:27;2.85;;;2.08;;
38683;SDS011;24910;53.248;-6.134;2022-09-09T11:46:00;7.20;;;2.40;;
38683;SDS011;24910;53.248;-6.134;2022-09-09T11:51:05;3.72;;;2.03;;
38683;SDS011;24910;53.248;-6.134;2022-09-09T11:53:49;3.75;;;1.92;;
38683;SDS011;24910;53.248;-6.134;2022-09-09T11:56:26;4.75;;;2.33;;
38683;SDS011;24910;53.248;-6.134;2022-09-09T11:58:59;3.53;;;2.00;;
38683;SDS011;24910;53.248;-6.134;2022-09-09T12:01:34;4.15;;;2.13;;
38683;SDS011;24910;53.248;-6.134;2022-09-09T12:07:23;2.63;;;2.20;;
38683;SDS011;24910;53.248;-6.134;2022-09-09T12:09:58;4.47;;;2.10;;
38683;SDS011;24910;53.248;-6.134;2022-09-09T12:12:32;5.10;;;2.25;;
38683;SDS011;24910;53.248;-6.134;2022-09-09T12:15:18;4.30;;;1.85;;
38683;SDS011;24910;53.248;-6.134;2022-09-09T12:17:55;5.28;;;2.30;;
38683;SDS011;24910;53.248;-6.134;2022-09-09T12:20:33;5.05;;;2.05;;
38683;SDS011;24910;53.248;-6.134;2022-09-09T12:26:07;1.92;;;1.50;;
38683;SDS011;24910;53.248;-6.134;2022-09-09T12:29:02;3.35;;;1.80;;
38683;SDS011;24910;53.248;-6.134;2022-09-09T12:31:41;1.65;;;1.50;;
38683;SDS011;24910;53.248;-6.134;2022-09-09T12:34:15;2.75;;;1.70;;
38683;SDS011;24910;53.248;-6.134;2022-09-09T12:36:50;2.03;;;1.90;;
38683;SDS011;24910;53.248;-6.134;2022-09-09T12:39:27;3.42;;;2.30;;
38683;SDS011;24910;53.248;-6.134;2022-09-09T12:42:02;4.32;;;2.45;;
38683;SDS011;24910;53.248;-6.134;2022-09-09T12:44:31;6.13;;;2.92;;
38683;SDS011;24910;53.248;-6.134;2022-09-09T12:47:00;3.90;;;2.85;;
38683;SDS011;24910;53.248;-6.134;2022-09-09T12:49:32;3.35;;;2.40;;
38683;SDS011;24910;53.248;-6.134;2022-09-09T12:52:06;3.42;;;2.40;;
38683;SDS011;24910;53.248;-6.134;2022-09-09T12:54:44;4.03;;;2.72;;
38683;SDS011;24910;53.248;-6.134;2022-09-09T12:57:15;5.13;;;2.50;;
38683;SDS011;24910;53.248;-6.134;2022-09-09T12:59:44;4.97;;;2.63;;
38683;SDS011;24910;53.248;-6.134;2022-09-09T13:02:20;4.28;;;2.30;;
38683;SDS011;24910;53.248;-6.134;2022-09-09T13:04:51;2.47;;;2.10;;
38683;SDS011;24910;53.248;-6.134;2022-09-09T13:07:21;2.90;;;2.50;;
38683;SDS011;24910;53.248;-6.134;2022-09-09T13:09:53;3.97;;;2.50;;
38683;SDS011;24910;53.248;-6.134;2022-09-09T13:12:22;3.03;;;2.43;;
38683;SDS011;24910;53.248;-6.134;2022-09-09T13:14:52;4.50;;;2.75;;
38683;SDS011;24910;53.248;-6.134;2022-09-09T13:17:24;4.28;;;2.70;;
38683;SDS011;24910;53.248;-6.134;2022-09-09T13:19:56;5.32;;;2.50;;
38683;SDS011;24910;53.248;-6.134;2022-09-09T13:22:28;3.30;;;2.13;;
38683;SDS011;24910;53.248;-6.134;2022-09-09T13:25:02;5.57;;;2.50;;
38683;SDS011;24910;53.248;-6.134;2022-09-09T13:27:34;4.25;;;2.70;;
38683;SDS011;24910;53.248;-6.134;2022-09-09T13:30:22;3.50;;;2.60;;
38683;SDS011;24910;53.248;-6.134;2022-09-09T13:33:06;5.72;;;2.75;;
38683;SDS011;24910;53.248;-6.134;2022-09-09T13:35:50;3.08;;;1.95;;
38683;SDS011;24910;53.248;-6.134;2022-09-09T13:38:22;3.40;;;2.03;;
38683;SDS011;24910;53.248;-6.134;2022-09-09T13:40:58;5.47;;;2.03;;
38683;SDS011;24910;53.248;-6.134;2022-09-09T13:43:34;4.88;;;3.03;;
38683;SDS011;24910;53.248;-6.134;2022-09-09T13:46:06;3.72;;;2.45;;
38683;SDS011;24910;53.248;-6.134;2022-09-09T13:48:55;3.55;;;2.70;;
38683;SDS011;24910;53.248;-6.134;2022-09-09T13:51:28;3.77;;;3.10;;
38683;SDS011;24910;53.248;-6.134;2022-09-09T13:54:01;4.20;;;2.95;;
38683;SDS011;24910;53.248;-6.134;2022-09-09T13:56:34;5.40;;;3.65;;
38683;SDS011;24910;53.248;-6.134;2022-09-09T13:59:04;5.80;;;3.80;;
38683;SDS011;24910;53.248;-6.134;2022-09-09T14:01:35;7.50;;;3.83;;
38683;SDS011;24910;53.248;-6.134;2022-09-09T14:04:04;6.22;;;3.63;;
38683;SDS011;24910;53.248;-6.134;2022-09-09T14:06:33;5.03;;;3.70;;
38683;SDS011;24910;53.248;-6.134;2022-09-09T14:09:04;5.88;;;4.15;;
38683;SDS011;24910;53.248;-6.134;2022-09-09T14:11:35;9.02;;;4.85;;
38683;SDS011;24910;53.248;-6.134;2022-09-09T14:14:04;8.13;;;3.80;;
38683;SDS011;24910;53.248;-6.134;2022-09-09T14:16:33;5.97;;;4.07;;
38683;SDS011;24910;53.248;-6.134;2022-09-09T14:19:02;6.25;;;4.00;;
38683;SDS011;24910;53.248;-6.134;2022-09-09T14:21:31;5.90;;;3.67;;
38683;SDS011;24910;53.248;-6.134;2022-09-09T14:24:00;7.72;;;4.47;;
38683;SDS011;24910;53.248;-6.134;2022-09-09T14:26:30;7.30;;;4.65;;
38683;SDS011;24910;53.248;-6.134;2022-09-09T14:29:00;4.65;;;4.22;;
38683;SDS011;24910;53.248;-6.134;2022-09-09T14:31:30;5.68;;;4.57;;
38683;SDS011;24910;53.248;-6.134;2022-09-09T14:33:59;5.90;;;4.00;;
38683;SDS011;24910;53.248;-6.134;2022-09-09T14:36:28;5.55;;;4.10;;
38683;SDS011;24910;53.248;-6.134;2022-09-09T14:38:58;6.03;;;3.65;;
38683;SDS011;24910;53.248;-6.134;2022-09-09T14:41:27;5.03;;;3.72;;
38683;SDS011;24910;53.248;-6.134;2022-09-09T14:43:56;5.05;;;3.40;;
38683;SDS011;24910;53.248;-6.134;2022-09-09T14:46:28;4.57;;;3.25;;
38683;SDS011;24910;53.248;-6.134;2022-09-09T14:48:58;3.13;;;2.40;;
38683;SDS011;24910;53.248;-6.134;2022-09-09T14:51:27;3.50;;;2.70;;
38683;SDS011;24910;53.248;-6.134;2022-09-09T14:53:58;2.97;;;2.67;;
38683;SDS011;24910;53.248;-6.134;2022-09-09T14:56:29;6.53;;;3.10;;
38683;SDS011;24910;53.248;-6.134;2022-09-09T14:59:01;2.85;;;2.20;;
38683;SDS011;24910;53.248;-6.134;2022-09-09T15:01:32;3.60;;;1.52;;
38683;SDS011;24910;53.248;-6.134;2022-09-09T15:04:02;3.35;;;2.20;;
38683;SDS011;24910;53.248;-6.134;2022-09-09T15:06:33;1.85;;;1.58;;
38683;SDS011;24910;53.248;-6.134;2022-09-09T15:09:06;2.30;;;1.80;;
38683;SDS011;24910;53.248;-6.134;2022-09-09T15:11:36;1.95;;;1.77;;
38683;SDS011;24910;53.248;-6.134;2022-09-09T15:14:05;2.40;;;2.08;;
38683;SDS011;24910;53.248;-6.134;2022-09-09T15:16:37;3.58;;;1.70;;
38683;SDS011;24910;53.248;-6.134;2022-09-09T15:19:07;2.80;;;1.33;;
38683;SDS011;24910;53.248;-6.134;2022-09-09T15:21:37;1.65;;;1.23;;
38683;SDS011;24910;53.248;-6.134;2022-09-09T15:24:06;1.92;;;1.65;;
38683;SDS011;24910;53.248;-6.134;2022-09-09T15:26:35;1.35;;;1.05;;
38683;SDS011;24910;53.248;-6.134;2022-09-09T15:29:06;2.33;;;1.33;;
38683;SDS011;24910;53.248;-6.134;2022-09-09T15:31:37;2.20;;;1.20;;
38683;SDS011;24910;53.248;-6.134;2022-09-09T15:34:07;2.30;;;1.38;;